createdAt,value
2019-05-23T00:00:04.949Z,0.00
2019-05-23T00:01:05.082Z,0.00
2019-05-23T00:02:04.779Z,0.00
2019-05-23T00:03:04.705Z,0.00
2019-05-23T00:04:04.793Z,0.00
2019-05-23T00:05:04.537Z,0.00
2019-05-23T00:06:04.469Z,0.00
2019-05-23T00:07:04.400Z,0.00
2019-05-23T00:08:04.282Z,0.00
2019-05-23T00:09:04.421Z,0.00
2019-05-23T00:10:04.118Z,0.00
2019-05-23T00:11:04.069Z,0.00
2019-05-23T00:12:04.029Z,0.00
2019-05-23T00:13:03.875Z,0.00
2019-05-23T00:14:03.792Z,0.00
2019-05-23T00:15:03.870Z,0.00
2019-05-23T00:16:03.636Z,0.00
2019-05-23T00:17:03.550Z,0.00
2019-05-23T00:18:03.657Z,0.00
2019-05-23T00:19:03.375Z,0.00
2019-05-23T00:20:03.469Z,0.00
2019-05-23T00:21:03.226Z,0.00
2019-05-23T00:22:03.126Z,0.00
2019-05-23T00:23:03.084Z,0.00
2019-05-23T00:24:02.954Z,0.00
2019-05-23T00:25:02.880Z,0.00
2019-05-23T00:26:02.920Z,0.00
2019-05-23T00:27:02.708Z,0.00
2019-05-23T00:28:02.703Z,0.00
2019-05-23T00:29:10.112Z,0.00
2019-05-23T00:30:02.506Z,0.00
2019-05-23T00:31:02.395Z,0.00
2019-05-23T00:32:02.315Z,0.00
2019-05-23T00:33:02.210Z,0.00
2019-05-23T00:34:02.338Z,0.00
2019-05-23T00:35:02.046Z,0.00
2019-05-23T00:36:02.181Z,0.00
2019-05-23T00:37:01.880Z,0.00
2019-05-23T00:38:01.792Z,0.00
2019-05-23T00:39:01.708Z,0.00
2019-05-23T00:40:01.770Z,0.00
2019-05-23T00:41:01.556Z,0.00
2019-05-23T00:42:01.456Z,0.00
2019-05-23T00:43:01.386Z,0.00
2019-05-23T00:44:01.368Z,0.00
2019-05-23T00:45:01.208Z,0.00
2019-05-23T00:46:01.157Z,0.00
2019-05-23T00:47:01.188Z,0.00
2019-05-23T00:48:00.962Z,0.00
2019-05-23T00:49:00.884Z,0.00
2019-05-23T00:50:01.002Z,0.00
2019-05-23T00:51:04.558Z,0.00
2019-05-23T00:52:00.654Z,0.00
2019-05-23T00:53:00.611Z,0.00
2019-05-23T00:54:00.462Z,0.00
2019-05-23T00:55:00.380Z,0.00
2019-05-23T00:56:00.425Z,0.00
2019-05-23T00:57:00.230Z,0.00
2019-05-23T00:58:00.237Z,0.00
2019-05-23T00:59:00.043Z,0.00
2019-05-23T01:00:00.043Z,0.00
2019-05-23T01:00:59.884Z,0.00
2019-05-23T01:01:59.885Z,0.00
2019-05-23T01:02:59.713Z,0.00
2019-05-23T01:03:59.658Z,0.00
2019-05-23T01:04:59.546Z,0.00
2019-05-23T01:05:59.674Z,0.00
2019-05-23T01:06:59.393Z,0.00
2019-05-23T01:07:59.297Z,0.00
2019-05-23T01:08:59.286Z,0.00
2019-05-23T01:09:59.130Z,0.00
2019-05-23T01:10:59.044Z,0.00
2019-05-23T01:11:59.035Z,0.00
2019-05-23T01:12:58.877Z,0.00
2019-05-23T01:13:58.796Z,0.00
2019-05-23T01:14:58.707Z,0.00
2019-05-23T01:15:58.716Z,0.00
2019-05-23T01:16:58.559Z,0.00
2019-05-23T01:17:58.466Z,0.00
2019-05-23T01:18:58.532Z,0.00
2019-05-23T01:19:58.296Z,0.00
2019-05-23T01:20:58.214Z,0.00
2019-05-23T01:21:58.179Z,0.00
2019-05-23T01:22:58.038Z,0.00
2019-05-23T01:23:58.154Z,0.00
2019-05-23T01:24:57.874Z,0.00
2019-05-23T01:25:57.964Z,0.00
2019-05-23T01:26:58.005Z,0.00
2019-05-23T01:27:57.622Z,0.00
2019-05-23T01:28:57.572Z,0.00
2019-05-23T01:29:57.462Z,0.00
2019-05-23T01:30:57.374Z,0.00
2019-05-23T01:31:57.757Z,0.00
2019-05-23T01:32:57.225Z,0.00
2019-05-23T01:33:57.198Z,0.00
2019-05-23T01:34:57.043Z,0.00
2019-05-23T01:35:57.001Z,0.00
2019-05-23T01:36:56.872Z,0.00
2019-05-23T01:37:56.849Z,0.00
2019-05-23T01:38:56.702Z,0.00
2019-05-23T01:39:56.827Z,0.00
2019-05-23T01:40:56.541Z,0.00
2019-05-23T01:41:56.636Z,0.00
2019-05-23T01:42:56.386Z,0.00
2019-05-23T01:43:56.443Z,0.00
2019-05-23T01:44:56.202Z,0.00
2019-05-23T01:45:56.251Z,0.00
2019-05-23T01:46:56.041Z,0.00
2019-05-23T01:47:55.962Z,0.00
2019-05-23T01:48:55.869Z,0.00
2019-05-23T01:49:55.868Z,0.00
2019-05-23T01:50:55.697Z,0.00
2019-05-23T01:51:55.625Z,0.00
2019-05-23T01:52:55.544Z,0.00
2019-05-23T01:53:55.484Z,0.00
2019-05-23T01:54:55.374Z,0.00
2019-05-23T01:55:55.497Z,0.00
2019-05-23T01:56:55.201Z,0.00
2019-05-23T01:57:55.127Z,0.00
2019-05-23T01:58:55.110Z,0.00
2019-05-23T02:00:09.060Z,0.00
2019-05-23T02:00:54.869Z,0.00
2019-05-23T02:01:54.926Z,0.00
2019-05-23T02:02:54.727Z,0.00
2019-05-23T02:03:54.618Z,0.00
2019-05-23T02:04:54.743Z,0.00
2019-05-23T02:05:54.446Z,0.00
2019-05-23T02:06:54.362Z,0.00
2019-05-23T02:07:54.352Z,0.00
2019-05-23T02:08:54.217Z,0.00
2019-05-23T02:09:54.108Z,0.00
2019-05-23T02:10:54.162Z,0.00
2019-05-23T02:11:53.953Z,0.00
2019-05-23T02:12:53.865Z,0.00
2019-05-23T02:13:53.811Z,0.00
2019-05-23T02:14:53.694Z,0.00
2019-05-23T02:15:53.790Z,0.00
2019-05-23T02:16:53.533Z,0.00
2019-05-23T02:17:53.443Z,0.00
2019-05-23T02:18:53.430Z,0.00
2019-05-23T02:19:53.278Z,0.00
2019-05-23T02:20:53.195Z,0.00
2019-05-23T02:21:53.214Z,0.00
2019-05-23T02:22:53.029Z,0.00
2019-05-23T02:23:53.057Z,0.00
2019-05-23T02:24:52.855Z,0.00
2019-05-23T02:25:52.830Z,0.00
2019-05-23T02:26:52.686Z,0.00
2019-05-23T02:27:52.609Z,0.00
2019-05-23T02:28:52.537Z,0.00
2019-05-23T02:29:52.651Z,0.00
2019-05-23T02:30:52.352Z,0.00
2019-05-23T02:31:52.467Z,0.00
2019-05-23T02:32:52.184Z,0.00
2019-05-23T02:33:52.117Z,0.00
2019-05-23T02:34:52.071Z,0.00
2019-05-23T02:35:51.936Z,0.00
2019-05-23T02:36:51.851Z,0.00
2019-05-23T02:37:51.886Z,0.00
2019-05-23T02:38:51.702Z,0.00
2019-05-23T02:39:51.697Z,0.00
2019-05-23T02:40:51.518Z,0.00
2019-05-23T02:41:51.511Z,0.00
2019-05-23T02:42:51.350Z,0.00
2019-05-23T02:43:51.300Z,0.00
2019-05-23T02:44:51.319Z,0.00
2019-05-23T02:45:51.108Z,0.00
2019-05-23T02:46:51.017Z,0.00
2019-05-23T02:47:51.132Z,0.00
2019-05-23T02:48:50.850Z,4.00
2019-05-23T02:49:50.973Z,4.00
2019-05-23T02:50:50.677Z,4.00
2019-05-23T02:51:50.752Z,4.00
2019-05-23T02:52:50.586Z,4.00
2019-05-23T02:53:50.556Z,4.00
2019-05-23T02:54:50.354Z,4.00
2019-05-23T02:55:50.364Z,8.00
2019-05-23T02:56:50.176Z,4.00
2019-05-23T02:57:50.178Z,8.00
2019-05-23T02:58:50.009Z,8.00
2019-05-23T02:59:50.016Z,12.00
2019-05-23T03:00:54.804Z,12.00
2019-05-23T03:01:49.790Z,12.00
2019-05-23T03:02:49.696Z,16.00
2019-05-23T03:03:49.803Z,12.00
2019-05-23T03:04:49.520Z,20.00
2019-05-23T03:05:49.615Z,20.00
2019-05-23T03:06:49.342Z,24.00
2019-05-23T03:07:49.422Z,28.00
2019-05-23T03:08:49.168Z,32.00
2019-05-23T03:09:49.270Z,32.00
2019-05-23T03:10:49.009Z,36.00
2019-05-23T03:11:49.038Z,44.00
2019-05-23T03:12:48.842Z,52.00
2019-05-23T03:13:48.854Z,56.00
2019-05-23T03:14:48.686Z,64.00
2019-05-23T03:15:48.659Z,72.00
2019-05-23T03:16:48.507Z,80.00
2019-05-23T03:17:48.469Z,88.00
2019-05-23T03:18:48.333Z,100.00
2019-05-23T03:19:48.322Z,108.00
2019-05-23T03:20:48.171Z,120.00
2019-05-23T03:21:48.078Z,136.00
2019-05-23T03:22:48.091Z,148.00
2019-05-23T03:23:47.912Z,168.00
2019-05-23T03:24:47.850Z,184.00
2019-05-23T03:25:47.901Z,200.00
2019-05-23T03:26:47.666Z,220.00
2019-05-23T03:27:47.580Z,240.00
2019-05-23T03:28:47.513Z,260.00
2019-05-23T03:29:47.419Z,284.00
2019-05-23T03:30:47.531Z,312.00
2019-05-23T03:31:47.253Z,340.00
2019-05-23T03:32:47.165Z,372.00
2019-05-23T03:33:47.071Z,404.00
2019-05-23T03:34:47.179Z,440.00
2019-05-23T03:35:46.908Z,480.00
2019-05-23T03:36:46.826Z,520.00
2019-05-23T03:37:46.755Z,564.00
2019-05-23T03:38:46.660Z,612.00
2019-05-23T03:39:46.596Z,664.00
2019-05-23T03:40:46.483Z,720.00
2019-05-23T03:41:46.573Z,776.00
2019-05-23T03:42:46.317Z,836.00
2019-05-23T03:43:46.382Z,896.00
2019-05-23T03:44:46.187Z,960.00
2019-05-23T03:45:46.191Z,1028.00
2019-05-23T03:46:46.028Z,1100.00
2019-05-23T03:47:45.897Z,1168.00
2019-05-23T03:48:46.008Z,1240.00
2019-05-23T03:49:45.725Z,1316.00
2019-05-23T03:50:45.656Z,1400.00
2019-05-23T03:51:45.656Z,1488.00
2019-05-23T03:52:45.478Z,1580.00
2019-05-23T03:53:45.389Z,1656.00
2019-05-23T03:54:45.433Z,1736.00
2019-05-23T03:55:45.236Z,1816.00
2019-05-23T03:56:45.141Z,1920.00
2019-05-23T03:57:45.245Z,2044.00
2019-05-23T03:58:44.994Z,2180.00
2019-05-23T03:59:44.912Z,2316.00
2019-05-23T04:00:44.905Z,2448.00
2019-05-23T04:01:48.462Z,2576.00
2019-05-23T04:02:44.643Z,2688.00
2019-05-23T04:03:44.678Z,2780.00
2019-05-23T04:04:44.470Z,2852.00
2019-05-23T04:05:44.514Z,2920.00
2019-05-23T04:06:44.302Z,3000.00
2019-05-23T04:07:44.225Z,3108.00
2019-05-23T04:08:44.306Z,3228.00
2019-05-23T04:09:44.062Z,3340.00
2019-05-23T04:10:44.459Z,3444.00
2019-05-23T04:11:43.904Z,3572.00
2019-05-23T04:12:43.799Z,3704.00
2019-05-23T04:13:43.761Z,3812.00
2019-05-23T04:14:43.720Z,3900.00
2019-05-23T04:15:43.575Z,3992.00
2019-05-23T04:16:43.479Z,4096.00
2019-05-23T04:17:43.549Z,4216.00
2019-05-23T04:18:43.307Z,4328.00
2019-05-23T04:19:43.359Z,4452.00
2019-05-23T04:20:43.140Z,4592.00
2019-05-23T04:21:43.154Z,4720.00
2019-05-23T04:22:42.963Z,4848.00
2019-05-23T04:23:42.878Z,4960.00
2019-05-23T04:24:42.968Z,5068.00
2019-05-23T04:25:42.722Z,5144.00
2019-05-23T04:26:42.628Z,5184.00
2019-05-23T04:27:42.580Z,5224.00
2019-05-23T04:28:42.462Z,5260.00
2019-05-23T04:29:42.597Z,5308.00
2019-05-23T04:30:42.306Z,5384.00
2019-05-23T04:31:42.412Z,5520.00
2019-05-23T04:32:42.123Z,5872.00
2019-05-23T04:33:42.209Z,6184.00
2019-05-23T04:34:41.958Z,6240.00
2019-05-23T04:35:42.053Z,6308.00
2019-05-23T04:36:41.798Z,6440.00
2019-05-23T04:37:41.829Z,6648.00
2019-05-23T04:38:41.646Z,6720.00
2019-05-23T04:39:41.551Z,6752.00
2019-05-23T04:40:41.685Z,6792.00
2019-05-23T04:41:41.388Z,6852.00
2019-05-23T04:42:41.304Z,6940.00
2019-05-23T04:43:41.288Z,7052.00
2019-05-23T04:44:44.349Z,7224.00
2019-05-23T04:45:41.058Z,7428.00
2019-05-23T04:46:41.077Z,7480.00
2019-05-23T04:47:40.908Z,7672.00
2019-05-23T04:48:40.797Z,7968.00
2019-05-23T04:49:40.880Z,8204.00
2019-05-23T04:50:40.654Z,8500.00
2019-05-23T04:51:40.553Z,8828.00
2019-05-23T04:52:40.700Z,8992.00
2019-05-23T04:53:40.390Z,9260.00
2019-05-23T04:54:40.307Z,9352.00
2019-05-23T04:55:40.356Z,9428.00
2019-05-23T04:56:40.178Z,9396.00
2019-05-23T04:57:40.072Z,9272.00
2019-05-23T04:58:40.119Z,9336.00
2019-05-23T04:59:39.897Z,9472.00
2019-05-23T05:00:39.960Z,9812.00
2019-05-23T05:01:39.730Z,10324.00
2019-05-23T05:02:39.651Z,10688.00
2019-05-23T05:03:39.656Z,11036.00
2019-05-23T05:04:39.500Z,11436.00
2019-05-23T05:05:39.484Z,11916.00
2019-05-23T05:06:39.367Z,12556.00
2019-05-23T05:07:39.246Z,12820.00
2019-05-23T05:08:39.173Z,12824.00
2019-05-23T05:09:39.092Z,12660.00
2019-05-23T05:10:39.013Z,12748.00
2019-05-23T05:11:38.927Z,12888.00
2019-05-23T05:12:38.833Z,13004.00
2019-05-23T05:13:38.756Z,12692.00
2019-05-23T05:14:38.793Z,12496.00
2019-05-23T05:15:38.663Z,12668.00
2019-05-23T05:16:38.523Z,12484.00
2019-05-23T05:17:39.368Z,12900.00
2019-05-23T05:18:38.491Z,13096.00
2019-05-23T05:19:38.269Z,12856.00
2019-05-23T05:20:38.305Z,13124.00
2019-05-23T05:21:38.114Z,13076.00
2019-05-23T05:22:38.033Z,12556.00
2019-05-23T05:23:38.039Z,12516.00
2019-05-23T05:24:40.283Z,12728.00
2019-05-23T05:25:38.076Z,12944.00
2019-05-23T05:26:37.854Z,13292.00
2019-05-23T05:27:38.432Z,13444.00
2019-05-23T05:28:38.441Z,13400.00
2019-05-23T05:29:37.477Z,13352.00
2019-05-23T05:30:37.393Z,13704.00
2019-05-23T05:31:37.382Z,13844.00
2019-05-23T05:32:45.015Z,13928.00
2019-05-23T05:33:37.416Z,14620.00
2019-05-23T05:34:37.058Z,15288.00
2019-05-23T05:35:37.110Z,15740.00
2019-05-23T05:36:36.917Z,16480.00
2019-05-23T05:37:36.819Z,16608.00
2019-05-23T05:38:36.826Z,16896.00
2019-05-23T05:39:36.665Z,17536.00
2019-05-23T05:40:36.585Z,17824.00
2019-05-23T05:41:37.528Z,18176.00
2019-05-23T05:42:36.421Z,17440.00
2019-05-23T05:43:36.347Z,17536.00
2019-05-23T05:44:36.403Z,18048.00
2019-05-23T05:45:36.178Z,18208.00
2019-05-23T05:46:36.114Z,18912.00
2019-05-23T05:47:36.144Z,19648.00
2019-05-23T05:48:35.934Z,20288.00
2019-05-23T05:49:35.875Z,20352.00
2019-05-23T05:50:35.827Z,20352.00
2019-05-23T05:51:35.820Z,21056.00
2019-05-23T05:52:35.622Z,22208.00
2019-05-23T05:53:35.534Z,22784.00
2019-05-23T05:54:36.479Z,23168.00
2019-05-23T05:55:35.378Z,23456.00
2019-05-23T05:56:35.301Z,23584.00
2019-05-23T05:57:35.435Z,23392.00
2019-05-23T05:58:35.145Z,23392.00
2019-05-23T05:59:35.200Z,22496.00
2019-05-23T06:00:34.990Z,22272.00
2019-05-23T06:01:35.032Z,21344.00
2019-05-23T06:02:34.861Z,20320.00
2019-05-23T06:03:34.737Z,22144.00
2019-05-23T06:04:34.826Z,24064.00
2019-05-23T06:05:34.582Z,25856.00
2019-05-23T06:06:34.504Z,27168.00
2019-05-23T06:07:35.493Z,27296.00
2019-05-23T06:08:34.342Z,26080.00
2019-05-23T06:09:34.272Z,26272.00
2019-05-23T06:10:34.180Z,27168.00
2019-05-23T06:11:34.326Z,25472.00
2019-05-23T06:12:34.052Z,24128.00
2019-05-23T06:13:34.084Z,23776.00
2019-05-23T06:14:36.221Z,24672.00
2019-05-23T06:15:33.785Z,23936.00
2019-05-23T06:16:33.707Z,23136.00
2019-05-23T06:17:33.773Z,20352.00
2019-05-23T06:18:33.566Z,23488.00
2019-05-23T06:19:33.479Z,22464.00
2019-05-23T06:20:33.516Z,23904.00
2019-05-23T06:21:33.313Z,28800.00
2019-05-23T06:22:33.285Z,33024.00
2019-05-23T06:23:33.174Z,34272.00
2019-05-23T06:24:44.901Z,35136.00
2019-05-23T06:25:33.011Z,35424.00
2019-05-23T06:26:32.919Z,35456.00
2019-05-23T06:27:32.859Z,35264.00
2019-05-23T06:28:32.770Z,35456.00
2019-05-23T06:29:32.696Z,37152.00
2019-05-23T06:30:32.896Z,37440.00
2019-05-23T06:31:32.534Z,37088.00
2019-05-23T06:32:32.475Z,38336.00
2019-05-23T06:33:32.377Z,38688.00
2019-05-23T06:34:32.325Z,39328.00
2019-05-23T06:35:32.219Z,40320.00
2019-05-23T06:36:32.149Z,41088.00
2019-05-23T06:37:34.377Z,39968.00
2019-05-23T06:38:31.991Z,39648.00
2019-05-23T06:39:31.913Z,39040.00
2019-05-23T06:40:31.842Z,38752.00
2019-05-23T06:41:31.763Z,39328.00
2019-05-23T06:42:31.699Z,42080.00
2019-05-23T06:43:31.627Z,44416.00
2019-05-23T06:44:31.532Z,44640.00
2019-05-23T06:45:31.466Z,44096.00
2019-05-23T06:46:31.378Z,43520.00
2019-05-23T06:47:31.349Z,44320.00
2019-05-23T06:48:31.226Z,41600.00
2019-05-23T06:49:31.154Z,44480.00
2019-05-23T06:50:31.079Z,43936.00
2019-05-23T06:51:31.002Z,42560.00
2019-05-23T06:52:30.927Z,43232.00
2019-05-23T06:53:30.864Z,45440.00
2019-05-23T06:54:30.781Z,46752.00
2019-05-23T06:55:30.713Z,47008.00
2019-05-23T06:56:30.625Z,47776.00
2019-05-23T06:57:30.557Z,49056.00
2019-05-23T06:58:30.502Z,49280.00
2019-05-23T06:59:30.394Z,48128.00
2019-05-23T07:00:30.330Z,45920.00
2019-05-23T07:01:30.243Z,46720.00
2019-05-23T07:02:32.100Z,45856.00
2019-05-23T07:03:41.186Z,44896.00
2019-05-23T07:04:30.024Z,44768.00
2019-05-23T07:05:29.954Z,47744.00
2019-05-23T07:06:29.869Z,53152.00
2019-05-23T07:07:29.796Z,54144.00
2019-05-23T07:08:29.769Z,54048.00
2019-05-23T07:09:29.649Z,54688.00
2019-05-23T07:10:29.588Z,55296.00
2019-05-23T07:11:29.498Z,56288.00
2019-05-23T07:12:29.440Z,54688.00
2019-05-23T07:13:29.370Z,51968.00
2019-05-23T07:14:29.277Z,48256.00
2019-05-23T07:15:29.210Z,48928.00
2019-05-23T07:16:29.143Z,50240.00
2019-05-23T07:17:29.062Z,52384.00
2019-05-23T07:18:29.022Z,40640.00
2019-05-23T07:19:28.931Z,43904.00
2019-05-23T07:20:28.844Z,49984.00
2019-05-23T07:21:28.766Z,51392.00
2019-05-23T07:22:28.703Z,54944.00
2019-05-23T07:23:28.634Z,54976.00
2019-05-23T07:24:28.551Z,55136.00
2019-05-23T07:25:28.480Z,56960.00
2019-05-23T07:26:28.415Z,57216.00
2019-05-23T07:27:28.329Z,58624.00
2019-05-23T07:28:28.268Z,58208.00
2019-05-23T07:29:28.181Z,57696.00
2019-05-23T07:30:28.121Z,45408.00
2019-05-23T07:31:28.035Z,51840.00
2019-05-23T07:32:27.964Z,59424.00
2019-05-23T07:33:27.902Z,62080.00
2019-05-23T07:34:27.819Z,62464.00
2019-05-23T07:35:27.744Z,61376.00
2019-05-23T07:36:27.680Z,61376.00
2019-05-23T07:37:27.648Z,62048.00
2019-05-23T07:38:27.535Z,60032.00
2019-05-23T07:39:27.461Z,59136.00
2019-05-23T07:40:27.400Z,62336.00
2019-05-23T07:41:27.311Z,64192.00
2019-05-23T07:42:27.238Z,64128.00
2019-05-23T07:43:27.181Z,65632.00
2019-05-23T07:44:27.094Z,64544.00
2019-05-23T07:45:27.044Z,64288.00
2019-05-23T07:46:26.948Z,63680.00
2019-05-23T07:47:26.896Z,63264.00
2019-05-23T07:48:26.833Z,63872.00
2019-05-23T07:49:26.735Z,57216.00
2019-05-23T07:50:26.670Z,48608.00
2019-05-23T07:51:29.652Z,63136.00
2019-05-23T07:52:26.530Z,67264.00
2019-05-23T07:53:26.468Z,67904.00
2019-05-23T07:54:26.402Z,69088.00
2019-05-23T07:55:26.314Z,69664.00
2019-05-23T07:56:26.274Z,70112.00
2019-05-23T07:57:26.169Z,67328.00
2019-05-23T07:58:26.122Z,66784.00
2019-05-23T07:59:26.027Z,68160.00
2019-05-23T08:00:25.963Z,67552.00
2019-05-23T08:01:25.898Z,68160.00
2019-05-23T08:02:26.446Z,68928.00
2019-05-23T08:03:25.781Z,68320.00
2019-05-23T08:04:25.736Z,69536.00
2019-05-23T08:05:25.637Z,63808.00
2019-05-23T08:06:26.583Z,62080.00
2019-05-23T08:07:25.475Z,62944.00
2019-05-23T08:08:25.469Z,69408.00
2019-05-23T08:09:25.354Z,70464.00
2019-05-23T08:10:33.849Z,72864.00
2019-05-23T08:11:25.194Z,72608.00
2019-05-23T08:12:25.187Z,69600.00
2019-05-23T08:13:25.073Z,70944.00
2019-05-23T08:14:25.071Z,75136.00
2019-05-23T08:15:24.926Z,75744.00
2019-05-23T08:16:25.050Z,76384.00
2019-05-23T08:17:24.822Z,78176.00
2019-05-23T08:18:24.863Z,79232.00
2019-05-23T08:19:24.662Z,80192.00
2019-05-23T08:20:24.577Z,80096.00
2019-05-23T08:21:24.700Z,80608.00
2019-05-23T08:22:24.441Z,81024.00
2019-05-23T08:23:24.377Z,74912.00
2019-05-23T08:24:24.398Z,58912.00
2019-05-23T08:25:24.236Z,69152.00
2019-05-23T08:26:24.269Z,72640.00
2019-05-23T08:27:24.104Z,72704.00
2019-05-23T08:28:24.046Z,77504.00
2019-05-23T08:29:26.612Z,79552.00
2019-05-23T08:30:24.117Z,79200.00
2019-05-23T08:31:23.835Z,84416.00
2019-05-23T08:32:23.929Z,84320.00
2019-05-23T08:33:23.696Z,77504.00
2019-05-23T08:34:39.997Z,85664.00
2019-05-23T08:35:23.559Z,78784.00
2019-05-23T08:36:23.542Z,81664.00
2019-05-23T08:37:23.424Z,84928.00
2019-05-23T08:38:23.367Z,84128.00
2019-05-23T08:39:23.307Z,84320.00
2019-05-23T08:40:23.366Z,85824.00
2019-05-23T08:41:23.188Z,86976.00
2019-05-23T08:42:23.173Z,88224.00
2019-05-23T08:43:23.025Z,87072.00
2019-05-23T08:44:22.979Z,70080.00
2019-05-23T08:45:22.892Z,70368.00
2019-05-23T08:46:22.998Z,78560.00
2019-05-23T08:47:22.761Z,86144.00
2019-05-23T08:48:22.694Z,79328.00
2019-05-23T08:49:22.639Z,71360.00
2019-05-23T08:50:22.555Z,79168.00
2019-05-23T08:51:22.622Z,75264.00
2019-05-23T08:52:22.421Z,87104.00
2019-05-23T08:53:22.425Z,87552.00
2019-05-23T08:54:22.297Z,87360.00
2019-05-23T08:55:22.220Z,85984.00
2019-05-23T08:56:22.240Z,83968.00
2019-05-23T08:57:22.121Z,87552.00
2019-05-23T08:58:22.013Z,88864.00
2019-05-23T08:59:22.088Z,87104.00
2019-05-23T09:00:21.879Z,87392.00
2019-05-23T09:01:21.808Z,90656.00
2019-05-23T09:02:21.850Z,91520.00
2019-05-23T09:03:21.679Z,92288.00
2019-05-23T09:04:21.648Z,92576.00
2019-05-23T09:05:21.558Z,92192.00
2019-05-23T09:06:21.483Z,92224.00
2019-05-23T09:07:21.481Z,90272.00
2019-05-23T09:08:21.355Z,85632.00
2019-05-23T09:09:29.793Z,93216.00
2019-05-23T09:10:21.232Z,92096.00
2019-05-23T09:11:21.198Z,88512.00
2019-05-23T09:12:21.088Z,88512.00
2019-05-23T09:13:22.034Z,89696.00
2019-05-23T09:14:20.948Z,90048.00
2019-05-23T09:15:20.959Z,89856.00
2019-05-23T09:16:20.826Z,87072.00
2019-05-23T09:17:20.967Z,83488.00
2019-05-23T09:18:20.696Z,80640.00
2019-05-23T09:19:20.625Z,84928.00
2019-05-23T09:20:20.576Z,89312.00
2019-05-23T09:21:20.497Z,91328.00
2019-05-23T09:22:20.423Z,95136.00
2019-05-23T09:23:20.580Z,92416.00
2019-05-23T09:24:20.296Z,95104.00
2019-05-23T09:25:20.434Z,93568.00
2019-05-23T09:26:20.170Z,89184.00
2019-05-23T09:27:20.201Z,88032.00
2019-05-23T09:28:20.039Z,90432.00
2019-05-23T09:29:21.231Z,90144.00
2019-05-23T09:30:19.921Z,93184.00
2019-05-23T09:31:20.019Z,93824.00
2019-05-23T09:32:19.768Z,92160.00
2019-05-23T09:33:19.734Z,88832.00
2019-05-23T09:34:19.646Z,88864.00
2019-05-23T09:35:21.998Z,90656.00
2019-05-23T09:36:19.640Z,91616.00
2019-05-23T09:37:19.453Z,94880.00
2019-05-23T09:38:19.380Z,96544.00
2019-05-23T09:39:19.347Z,98432.00
2019-05-23T09:40:19.261Z,93376.00
2019-05-23T09:41:19.186Z,91936.00
2019-05-23T09:42:19.269Z,87008.00
2019-05-23T09:43:19.050Z,77536.00
2019-05-23T09:44:18.986Z,83968.00
2019-05-23T09:45:19.126Z,89376.00
2019-05-23T09:46:18.877Z,91008.00
2019-05-23T09:47:18.892Z,94464.00
2019-05-23T09:48:18.729Z,94752.00
2019-05-23T09:49:18.725Z,96960.00
2019-05-23T09:50:18.609Z,96544.00
2019-05-23T09:51:18.718Z,87392.00
2019-05-23T09:52:18.490Z,78048.00
2019-05-23T09:53:18.438Z,74368.00
2019-05-23T09:54:18.333Z,73856.00
2019-05-23T09:55:18.304Z,75168.00
2019-05-23T09:56:18.201Z,79968.00
2019-05-23T09:57:18.138Z,87552.00
2019-05-23T09:58:18.064Z,90176.00
2019-05-23T09:59:18.004Z,95168.00
2019-05-23T10:00:17.970Z,100992.00
2019-05-23T10:01:17.942Z,103968.00
2019-05-23T10:02:17.809Z,102304.00
2019-05-23T10:03:17.739Z,99744.00
2019-05-23T10:04:17.669Z,79360.00
2019-05-23T10:05:17.614Z,71808.00
2019-05-23T10:06:17.565Z,96096.00
2019-05-23T10:07:17.478Z,97824.00
2019-05-23T10:08:17.408Z,98976.00
2019-05-23T10:09:17.346Z,100128.00
2019-05-23T10:10:17.270Z,101504.00
2019-05-23T10:11:17.224Z,101408.00
2019-05-23T10:12:17.140Z,98208.00
2019-05-23T10:13:17.078Z,83360.00
2019-05-23T10:14:17.009Z,97664.00
2019-05-23T10:15:16.947Z,92544.00
2019-05-23T10:16:16.886Z,83392.00
2019-05-23T10:17:16.818Z,84032.00
2019-05-23T10:18:16.750Z,88128.00
2019-05-23T10:19:16.695Z,85760.00
2019-05-23T10:20:16.612Z,83904.00
2019-05-23T10:21:16.575Z,86112.00
2019-05-23T10:22:16.484Z,91968.00
2019-05-23T10:23:16.429Z,93056.00
2019-05-23T10:24:16.361Z,92192.00
2019-05-23T10:25:16.291Z,103072.00
2019-05-23T10:26:16.226Z,102656.00
2019-05-23T10:27:16.150Z,101792.00
2019-05-23T10:28:16.082Z,54464.00
2019-05-23T10:29:16.022Z,89312.00
2019-05-23T10:30:15.948Z,92128.00
2019-05-23T10:31:15.896Z,52544.00
2019-05-23T10:32:15.825Z,75392.00
2019-05-23T10:33:15.755Z,38080.00
2019-05-23T10:34:15.684Z,41056.00
2019-05-23T10:35:15.630Z,102368.00
2019-05-23T10:36:15.600Z,105184.00
2019-05-23T10:37:15.484Z,100512.00
2019-05-23T10:38:15.428Z,56768.00
2019-05-23T10:39:15.350Z,59488.00
2019-05-23T10:40:15.280Z,50848.00
2019-05-23T10:41:15.238Z,101088.00
2019-05-23T10:42:15.145Z,99136.00
2019-05-23T10:43:15.085Z,99232.00
2019-05-23T10:44:15.017Z,103744.00
2019-05-23T10:45:14.941Z,106656.00
2019-05-23T10:46:14.899Z,112000.00
2019-05-23T10:47:14.845Z,116352.00
2019-05-23T10:48:14.745Z,109920.00
2019-05-23T10:49:14.682Z,108928.00
2019-05-23T10:50:14.626Z,116992.00
2019-05-23T10:51:14.553Z,110848.00
2019-05-23T10:52:14.480Z,110464.00
2019-05-23T10:53:14.408Z,37984.00
2019-05-23T10:54:14.343Z,59520.00
2019-05-23T10:55:14.282Z,103456.00
2019-05-23T10:56:14.232Z,108704.00
2019-05-23T10:57:14.145Z,117312.00
2019-05-23T10:58:14.100Z,110720.00
2019-05-23T10:59:14.031Z,108160.00
2019-05-23T11:00:13.944Z,109952.00
2019-05-23T11:01:13.900Z,108480.00
2019-05-23T11:02:13.811Z,106624.00
2019-05-23T11:03:13.749Z,106144.00
2019-05-23T11:04:13.686Z,105024.00
2019-05-23T11:05:14.232Z,98400.00
2019-05-23T11:06:16.679Z,98976.00
2019-05-23T11:07:13.482Z,96768.00
2019-05-23T11:08:13.415Z,41984.00
2019-05-23T11:09:13.363Z,41056.00
2019-05-23T11:10:13.287Z,103552.00
2019-05-23T11:11:14.690Z,109184.00
2019-05-23T11:12:13.152Z,108704.00
2019-05-23T11:13:13.097Z,113088.00
2019-05-23T11:14:13.025Z,110752.00
2019-05-23T11:15:12.956Z,107456.00
2019-05-23T11:16:12.897Z,110112.00
2019-05-23T11:17:12.835Z,119136.00
2019-05-23T11:18:12.764Z,123648.00
2019-05-23T11:19:12.695Z,121216.00
2019-05-23T11:20:12.625Z,117376.00
2019-05-23T11:21:12.557Z,110880.00
2019-05-23T11:22:12.507Z,52544.00
2019-05-23T11:23:12.427Z,96576.00
2019-05-23T11:24:12.368Z,105824.00
2019-05-23T11:25:12.292Z,104832.00
2019-05-23T11:26:12.229Z,116672.00
2019-05-23T11:27:12.180Z,114688.00
2019-05-23T11:28:12.093Z,115232.00
2019-05-23T11:29:12.035Z,98144.00
2019-05-23T11:30:11.965Z,119008.00
2019-05-23T11:31:11.899Z,100864.00
2019-05-23T11:32:11.858Z,109984.00
2019-05-23T11:33:11.780Z,76320.00
2019-05-23T11:34:11.702Z,53344.00
2019-05-23T11:35:11.635Z,103968.00
2019-05-23T11:36:11.583Z,123008.00
2019-05-23T11:37:11.525Z,46816.00
2019-05-23T11:38:11.438Z,52736.00
2019-05-23T11:39:11.398Z,42848.00
2019-05-23T11:40:11.308Z,45408.00
2019-05-23T11:41:11.234Z,42432.00
2019-05-23T11:42:11.191Z,40544.00
2019-05-23T11:43:11.104Z,38688.00
2019-05-23T11:44:11.052Z,42720.00
2019-05-23T11:45:10.991Z,43936.00
2019-05-23T11:46:10.923Z,108352.00
2019-05-23T11:47:10.845Z,62304.00
2019-05-23T11:48:10.830Z,91072.00
2019-05-23T11:49:10.729Z,95552.00
2019-05-23T11:50:11.140Z,89568.00
2019-05-23T11:51:10.562Z,58176.00
2019-05-23T11:52:10.510Z,87520.00
2019-05-23T11:53:10.423Z,74048.00
2019-05-23T11:54:10.544Z,102048.00
2019-05-23T11:55:10.291Z,104736.00
2019-05-23T11:56:10.242Z,102912.00
2019-05-23T11:57:10.237Z,100352.00
2019-05-23T11:58:10.112Z,106304.00
2019-05-23T11:59:10.015Z,101280.00
2019-05-23T12:00:09.962Z,94240.00
2019-05-23T12:01:10.531Z,82944.00
2019-05-23T12:02:09.832Z,80544.00
2019-05-23T12:03:09.746Z,98592.00
2019-05-23T12:04:09.699Z,100992.00
2019-05-23T12:05:09.612Z,55552.00
2019-05-23T12:06:09.553Z,53952.00
2019-05-23T12:07:09.487Z,83872.00
2019-05-23T12:08:09.409Z,100544.00